Time;durP1;ratioP1;P1;durP2;ratioP2;P2;SDS_P1;SDS_P2;PMS_P1;PMS_P2;Temp;Humidity;BMP_temperature;BMP_pressure;BME280_temperature;BME280_humidity;BME280_pressure;Samples;Min_cycle;Max_cycle;Signal;HPM_P1;HPM_P2
2022/12/09 00:01:06;;;;;;;21.55;13.38;;;;;;;;;;2095549;28;20048;-81
2022/12/09 00:02:25;;;;;;;20.73;13.75;;;;;;;;;;2095907;28;20423;-79
2022/12/09 00:03:44;;;;;;;21.17;12.23;;;;;;;;;;2094122;28;20435;-78
2022/12/09 00:05:03;;;;;;;17.00;12.32;;;;;;;;;;2095530;28;20107;-79
2022/12/09 00:06:24;;;;;;;19.17;11.57;;;;;;;;;;2097061;28;20032;-77
2022/12/09 00:07:43;;;;;;;17.25;11.73;;;;;;;;;;2094910;28;20113;-75
2022/12/09 00:09:02;;;;;;;18.27;11.93;;;;;;;;;;2096443;28;20021;-75
2022/12/09 00:10:21;;;;;;;16.92;11.80;;;;;;;;;;2094719;28;20044;-79
2022/12/09 00:11:40;;;;;;;16.30;12.00;;;;;;;;;;2093904;28;20029;-79
2022/12/09 00:12:59;;;;;;;16.80;11.88;;;;;;;;;;2095948;28;20032;-77
2022/12/09 00:14:18;;;;;;;20.10;13.38;;;;;;;;;;2093268;28;20104;-79
2022/12/09 00:15:41;;;;;;;20.17;11.88;;;;;;;;;;2091782;28;20396;-76
2022/12/09 00:17:00;;;;;;;21.05;12.90;;;;;;;;;;2096480;28;20278;-79
2022/12/09 00:18:20;;;;;;;19.17;13.10;;;;;;;;;;2094150;28;20047;-78
2022/12/09 00:19:39;;;;;;;19.02;12.23;;;;;;;;;;2093407;28;20041;-79
2022/12/09 00:20:58;;;;;;;21.55;12.80;;;;;;;;;;2096836;28;20025;-79
2022/12/09 00:22:17;;;;;;;19.52;12.25;;;;;;;;;;2098213;28;20032;-79
2022/12/09 00:23:36;;;;;;;18.35;12.50;;;;;;;;;;2093451;28;20029;-78
2022/12/09 00:24:54;;;;;;;20.70;12.18;;;;;;;;;;2094904;28;20028;-77
2022/12/09 00:26:14;;;;;;;19.90;12.40;;;;;;;;;;2093394;28;20036;-79
2022/12/09 00:27:33;;;;;;;19.15;12.45;;;;;;;;;;2096366;28;20048;-76
2022/12/09 00:28:52;;;;;;;25.08;12.50;;;;;;;;;;2096889;28;20028;-78
2022/12/09 00:30:11;;;;;;;18.55;12.70;;;;;;;;;;2094422;28;20021;-80
2022/12/09 00:31:31;;;;;;;19.88;12.40;;;;;;;;;;2095840;28;20037;-80
2022/12/09 00:32:50;;;;;;;16.75;11.65;;;;;;;;;;2096953;28;20033;-81
2022/12/09 00:34:10;;;;;;;22.30;12.48;;;;;;;;;;2097331;28;20034;-81
2022/12/09 00:35:29;;;;;;;17.15;12.25;;;;;;;;;;2093468;28;20509;-82
2022/12/09 00:36:48;;;;;;;21.65;13.55;;;;;;;;;;2095409;28;20114;-81
2022/12/09 00:38:07;;;;;;;18.48;12.18;;;;;;;;;;2097977;28;20032;-82
2022/12/09 00:39:26;;;;;;;19.23;12.95;;;;;;;;;;2095054;28;20032;-81
2022/12/09 00:40:45;;;;;;;19.45;12.95;;;;;;;;;;2094207;28;20052;-81
2022/12/09 00:42:04;;;;;;;17.52;11.80;;;;;;;;;;2096758;28;20096;-81
2022/12/09 00:43:23;;;;;;;19.88;12.80;;;;;;;;;;2096895;28;20397;-81
2022/12/09 00:44:42;;;;;;;16.33;11.52;;;;;;;;;;2095868;28;20017;-80
2022/12/09 00:46:01;;;;;;;17.02;12.02;;;;;;;;;;2094905;28;20037;-81
2022/12/09 00:47:20;;;;;;;17.20;11.50;;;;;;;;;;2095902;28;20040;-82
2022/12/09 00:48:39;;;;;;;19.38;11.50;;;;;;;;;;2095808;28;20024;-82
2022/12/09 00:49:57;;;;;;;16.50;12.95;;;;;;;;;;2092196;28;20887;-82
2022/12/09 00:51:17;;;;;;;19.17;11.85;;;;;;;;;;2091949;28;20040;-77
2022/12/09 00:52:36;;;;;;;16.75;11.05;;;;;;;;;;2096326;28;20028;-79
2022/12/09 00:53:55;;;;;;;15.77;11.05;;;;;;;;;;2093432;28;20020;-81
2022/12/09 00:55:15;;;;;;;18.67;12.02;;;;;;;;;;2092395;28;20025;-82
2022/12/09 00:56:34;;;;;;;16.38;12.35;;;;;;;;;;2093165;28;20029;-81
2022/12/09 00:57:53;;;;;;;19.70;11.57;;;;;;;;;;2094799;28;20033;-81
2022/12/09 00:59:11;;;;;;;18.15;12.15;;;;;;;;;;2095603;28;20029;-81
2022/12/09 01:00:31;;;;;;;17.63;11.60;;;;;;;;;;2091957;28;20451;-80
2022/12/09 01:01:50;;;;;;;19.23;12.20;;;;;;;;;;2096366;28;20032;-82
2022/12/09 01:03:15;;;;;;;17.58;12.85;;;;;;;;;;2095602;28;20048;-81
2022/12/09 01:04:34;;;;;;;25.60;13.57;;;;;;;;;;2096476;28;20070;-80
2022/12/09 01:05:54;;;;;;;20.48;12.10;;;;;;;;;;2094292;28;20420;-81
2022/12/09 01:07:13;;;;;;;17.08;12.15;;;;;;;;;;2093293;28;20033;-79
2022/12/09 01:08:32;;;;;;;20.20;11.85;;;;;;;;;;2091294;28;20392;-79
2022/12/09 01:09:51;;;;;;;19.58;11.65;;;;;;;;;;2091432;28;20037;-79
2022/12/09 01:11:11;;;;;;;17.27;11.98;;;;;;;;;;2095703;28;20041;-79
2022/12/09 01:12:29;;;;;;;19.20;12.18;;;;;;;;;;2095491;28;20025;-78
2022/12/09 01:13:49;;;;;;;19.05;13.07;;;;;;;;;;2095713;28;20040;-80
2022/12/09 01:15:08;;;;;;;18.77;11.80;;;;;;;;;;2094782;28;20036;-79
2022/12/09 01:16:28;;;;;;;18.55;12.70;;;;;;;;;;2093531;28;20052;-79
2022/12/09 01:17:47;;;;;;;17.98;12.48;;;;;;;;;;2094686;28;20074;-78
2022/12/09 01:19:07;;;;;;;17.25;11.55;;;;;;;;;;2095760;28;20028;-78
2022/12/09 01:20:27;;;;;;;18.58;11.70;;;;;;;;;;2094763;28;20135;-79
2022/12/09 01:21:46;;;;;;;16.60;11.48;;;;;;;;;;2095049;28;20036;-79
2022/12/09 01:23:05;;;;;;;14.60;11.07;;;;;;;;;;2095464;28;20025;-79
2022/12/09 01:24:24;;;;;;;17.90;12.10;;;;;;;;;;2094860;28;20159;-78
2022/12/09 01:25:43;;;;;;;17.25;11.88;;;;;;;;;;2094616;28;20033;-79
2022/12/09 01:27:02;;;;;;;17.13;11.70;;;;;;;;;;2095625;28;20404;-76
2022/12/09 01:28:21;;;;;;;16.48;11.15;;;;;;;;;;2096681;28;20029;-79
2022/12/09 01:29:40;;;;;;;11.90;8.23;;;;;;;;;;2095497;28;20029;-76
2022/12/09 01:31:05;;;;;;;11.70;8.68;;;;;;;;;;2092836;28;20209;-78
2022/12/09 01:32:24;;;;;;;14.15;9.05;;;;;;;;;;2092198;28;20516;-78
2022/12/09 01:33:42;;;;;;;11.15;8.30;;;;;;;;;;2094212;28;20107;-77
2022/12/09 01:35:03;;;;;;;14.55;9.75;;;;;;;;;;2097090;28;20029;-75
2022/12/09 01:36:24;;;;;;;12.23;9.35;;;;;;;;;;2095962;28;20032;-80
2022/12/09 01:37:43;;;;;;;12.13;9.38;;;;;;;;;;2095538;28;20116;-75
2022/12/09 01:39:02;;;;;;;16.48;9.40;;;;;;;;;;2095214;28;20072;-76
2022/12/09 01:40:21;;;;;;;16.35;9.63;;;;;;;;;;2095748;28;20033;-80
2022/12/09 01:41:40;;;;;;;15.00;9.27;;;;;;;;;;2092483;28;20049;-80
2022/12/09 01:42:59;;;;;;;13.25;9.45;;;;;;;;;;2096465;28;20032;-77
2022/12/09 01:44:20;;;;;;;13.02;9.70;;;;;;;;;;2097645;28;20033;-81
2022/12/09 01:45:39;;;;;;;13.00;9.20;;;;;;;;;;2094587;28;20024;-80
2022/12/09 01:46:59;;;;;;;12.70;9.73;;;;;;;;;;2091553;28;20032;-80
2022/12/09 01:48:20;;;;;;;17.40;10.50;;;;;;;;;;2096809;28;20032;-80
2022/12/09 01:49:46;;;;;;;13.40;9.32;;;;;;;;;;2097572;28;20020;-80
2022/12/09 01:51:12;;;;;;;14.25;9.45;;;;;;;;;;2094446;28;20029;-81
2022/12/09 01:52:31;;;;;;;20.02;9.75;;;;;;;;;;2097557;28;20028;-81
2022/12/09 01:53:51;;;;;;;14.43;9.88;;;;;;;;;;2094449;28;20028;-79
2022/12/09 01:55:10;;;;;;;17.08;10.07;;;;;;;;;;2097499;28;20033;-80
2022/12/09 01:56:31;;;;;;;11.90;8.98;;;;;;;;;;2096904;28;20037;-80
2022/12/09 01:57:50;;;;;;;15.52;9.48;;;;;;;;;;2097260;28;20036;-80
2022/12/09 01:59:10;;;;;;;14.15;9.80;;;;;;;;;;2096883;28;20040;-80
2022/12/09 02:00:28;;;;;;;13.20;9.70;;;;;;;;;;2094873;28;20078;-80
2022/12/09 02:01:49;;;;;;;10.77;9.10;;;;;;;;;;2096669;28;20041;-80
2022/12/09 02:03:08;;;;;;;15.65;9.82;;;;;;;;;;2098121;28;20020;-80
2022/12/09 02:04:28;;;;;;;12.80;9.40;;;;;;;;;;2098263;28;20029;-81
2022/12/09 02:05:47;;;;;;;14.60;10.13;;;;;;;;;;2097350;28;20028;-80
2022/12/09 02:07:08;;;;;;;14.65;9.82;;;;;;;;;;2094807;28;20505;-79
2022/12/09 02:08:27;;;;;;;13.23;9.82;;;;;;;;;;2097018;28;20044;-80
2022/12/09 02:09:51;;;;;;;11.20;8.73;;;;;;;;;;2096226;28;20051;-76
2022/12/09 02:11:22;;;;;;;15.35;8.13;;;;;;;;;;2096893;28;20028;-78
2022/12/09 02:12:41;;;;;;;12.45;8.27;;;;;;;;;;2097710;28;20036;-81
2022/12/09 02:14:23;;;;;;;11.63;7.95;;;;;;;;;;2095581;28;20033;-80
2022/12/09 02:15:52;;;;;;;11.32;8.68;;;;;;;;;;2094538;28;20028;-81
2022/12/09 02:17:30;;;;;;;16.50;8.43;;;;;;;;;;2095492;28;20048;-81
2022/12/09 02:18:49;;;;;;;13.43;7.57;;;;;;;;;;2095975;28;20032;-80
2022/12/09 02:20:29;;;;;;;10.52;7.88;;;;;;;;;;2097369;28;20068;-80
2022/12/09 02:21:54;;;;;;;13.98;7.88;;;;;;;;;;2096490;28;20071;-81
2022/12/09 02:23:18;;;;;;;12.38;7.38;;;;;;;;;;2095302;28;20041;-80
2022/12/09 02:24:40;;;;;;;12.10;7.20;;;;;;;;;;2094638;28;20033;-79
2022/12/09 02:26:05;;;;;;;8.27;6.68;;;;;;;;;;2097466;28;20560;-79
2022/12/09 02:27:31;;;;;;;9.07;7.00;;;;;;;;;;2096252;28;20032;-79
2022/12/09 02:29:02;;;;;;;13.00;6.72;;;;;;;;;;2096909;28;20060;-79
2022/12/09 02:30:24;;;;;;;12.40;6.80;;;;;;;;;;2093944;28;20653;-80
2022/12/09 02:31:43;;;;;;;8.80;6.57;;;;;;;;;;2093233;28;20500;-80
2022/12/09 02:33:11;;;;;;;8.50;6.05;;;;;;;;;;2097520;28;20029;-75
2022/12/09 02:34:32;;;;;;;9.40;6.63;;;;;;;;;;2098357;28;20115;-79
2022/12/09 02:35:54;;;;;;;9.80;6.53;;;;;;;;;;2096520;28;20032;-79
2022/12/09 02:37:17;;;;;;;10.10;6.22;;;;;;;;;;2096939;28;20036;-78
2022/12/09 02:38:38;;;;;;;7.35;6.07;;;;;;;;;;2097176;28;20489;-79
2022/12/09 02:40:00;;;;;;;10.32;6.78;;;;;;;;;;2096975;28;20044;-80
2022/12/09 02:41:24;;;;;;;9.25;6.80;;;;;;;;;;2096380;28;20063;-79
2022/12/09 02:42:45;;;;;;;9.98;6.22;;;;;;;;;;2097599;28;20505;-79
2022/12/09 02:44:10;;;;;;;9.93;6.25;;;;;;;;;;2096783;28;20028;-80
2022/12/09 02:45:30;;;;;;;9.68;6.18;;;;;;;;;;2096080;28;20107;-76
2022/12/09 02:46:49;;;;;;;9.82;6.30;;;;;;;;;;2097015;28;20029;-80
2022/12/09 02:48:10;;;;;;;9.20;6.32;;;;;;;;;;2096726;28;20025;-79
2022/12/09 02:49:30;;;;;;;9.82;6.60;;;;;;;;;;2095147;28;20615;-80
2022/12/09 02:50:50;;;;;;;7.65;6.15;;;;;;;;;;2098005;28;20040;-81
2022/12/09 02:52:10;;;;;;;8.23;6.10;;;;;;;;;;2097034;28;20037;-81
2022/12/09 02:53:29;;;;;;;11.40;7.57;;;;;;;;;;2093830;28;20473;-79
2022/12/09 02:54:49;;;;;;;9.82;6.22;;;;;;;;;;2094893;28;20052;-81
2022/12/09 02:56:08;;;;;;;11.63;7.07;;;;;;;;;;2095512;28;20036;-81
2022/12/09 02:57:29;;;;;;;7.82;6.63;;;;;;;;;;2095372;28;20578;-81
2022/12/09 02:58:48;;;;;;;8.18;7.05;;;;;;;;;;2093811;28;20024;-81
2022/12/09 03:00:07;;;;;;;7.13;6.22;;;;;;;;;;2094564;28;20505;-77
2022/12/09 03:01:39;;;;;;;11.68;6.55;;;;;;;;;;2097168;28;20033;-80
2022/12/09 03:03:00;;;;;;;9.65;6.82;;;;;;;;;;2098280;28;20036;-81
2022/12/09 03:04:21;;;;;;;10.25;6.15;;;;;;;;;;2097850;28;20033;-81
2022/12/09 03:05:46;;;;;;;8.27;5.65;;;;;;;;;;2097446;28;20147;-81
2022/12/09 03:07:16;;;;;;;7.90;6.22;;;;;;;;;;2097199;28;20451;-80
2022/12/09 03:08:35;;;;;;;9.57;5.68;;;;;;;;;;2093766;28;20123;-81
2022/12/09 03:10:01;;;;;;;6.13;5.13;;;;;;;;;;2100663;28;20056;-80
2022/12/09 03:11:21;;;;;;;5.40;4.65;;;;;;;;;;2099961;28;20032;-79
2022/12/09 03:12:42;;;;;;;5.75;5.05;;;;;;;;;;2093087;28;20040;-81
2022/12/09 03:14:10;;;;;;;8.65;5.07;;;;;;;;;;2096396;28;20041;-81
2022/12/09 03:15:30;;;;;;;5.68;4.80;;;;;;;;;;2092297;28;20505;-77
2022/12/09 03:16:55;;;;;;;5.47;4.80;;;;;;;;;;2096207;28;20657;-81
2022/12/09 03:18:15;;;;;;;7.03;4.82;;;;;;;;;;2095956;28;20040;-80
2022/12/09 03:19:36;;;;;;;10.27;5.35;;;;;;;;;;2096683;28;20476;-81
2022/12/09 03:20:56;;;;;;;9.65;5.68;;;;;;;;;;2096814;28;20040;-80
2022/12/09 03:22:16;;;;;;;7.25;5.22;;;;;;;;;;2097068;28;20029;-81
2022/12/09 03:23:35;;;;;;;8.35;4.63;;;;;;;;;;2106167;28;20071;-81
2022/12/09 03:24:59;;;;;;;6.53;5.35;;;;;;;;;;2099016;28;20016;-81
2022/12/09 03:26:18;;;;;;;5.78;5.00;;;;;;;;;;2095613;28;20133;-80
2022/12/09 03:27:41;;;;;;;5.57;5.07;;;;;;;;;;2096877;28;20017;-80
2022/12/09 03:29:02;;;;;;;7.35;5.28;;;;;;;;;;2097716;28;20040;-77
2022/12/09 03:30:20;;;;;;;8.98;5.03;;;;;;;;;;2096283;28;20492;-81
2022/12/09 03:31:40;;;;;;;5.85;5.25;;;;;;;;;;2094310;28;20024;-79
2022/12/09 03:32:59;;;;;;;11.35;5.70;;;;;;;;;;2096361;28;20036;-80
2022/12/09 03:34:21;;;;;;;9.27;5.40;;;;;;;;;;2093862;28;20036;-80
2022/12/09 03:35:42;;;;;;;8.55;5.72;;;;;;;;;;2096621;28;20032;-77
2022/12/09 03:37:03;;;;;;;6.82;5.20;;;;;;;;;;2097657;28;20107;-80
2022/12/09 03:38:23;;;;;;;6.25;5.65;;;;;;;;;;2093405;28;20029;-80
2022/12/09 03:39:43;;;;;;;7.00;5.28;;;;;;;;;;2092278;28;20334;-80
2022/12/09 03:41:24;;;;;;;8.65;6.00;;;;;;;;;;2095476;28;20024;-80
2022/12/09 03:42:47;;;;;;;8.95;5.72;;;;;;;;;;2097131;28;20025;-80
2022/12/09 03:44:06;;;;;;;;;;;;;;;;;;2097043;28;20028;-80
2022/12/09 03:45:25;;;;;;;8.13;5.43;;;;;;;;;;2091918;28;20452;-81
2022/12/09 03:46:45;;;;;;;12.88;6.47;;;;;;;;;;2097139;28;20020;-81
2022/12/09 03:48:04;;;;;;;9.90;6.65;;;;;;;;;;2096256;28;20049;-81
2022/12/09 03:49:23;;;;;;;8.60;5.80;;;;;;;;;;2098186;28;20107;-80
2022/12/09 03:50:51;;;;;;;9.02;5.78;;;;;;;;;;2095970;28;20040;-81
2022/12/09 03:52:16;;;;;;;11.45;6.40;;;;;;;;;;2098131;28;20044;-80
2022/12/09 03:53:38;;;;;;;9.40;6.28;;;;;;;;;;2092514;28;20061;-80
2022/12/09 03:54:59;;;;;;;8.80;6.30;;;;;;;;;;2101135;28;20024;-80
2022/12/09 03:56:21;;;;;;;7.55;6.18;;;;;;;;;;2100061;28;20024;-80
2022/12/09 03:57:42;;;;;;;8.68;6.28;;;;;;;;;;2096530;28;20095;-78
2022/12/09 03:59:02;;;;;;;7.13;6.38;;;;;;;;;;2096840;28;20028;-80
2022/12/09 04:00:21;;;;;;;9.75;6.40;;;;;;;;;;2092523;28;20025;-80
2022/12/09 04:01:41;;;;;;;8.27;6.35;;;;;;;;;;2093867;28;20056;-81
2022/12/09 04:03:00;;;;;;;8.93;7.05;;;;;;;;;;2093763;28;20028;-80
2022/12/09 04:04:18;;;;;;;11.70;6.90;;;;;;;;;;2091713;28;20032;-82
2022/12/09 04:05:37;;;;;;;8.77;6.82;;;;;;;;;;2094822;28;20099;-82
2022/12/09 04:06:57;;;;;;;8.82;7.20;;;;;;;;;;2097764;28;20111;-82
2022/12/09 04:08:15;;;;;;;7.80;6.70;;;;;;;;;;2097175;28;20064;-82
2022/12/09 04:09:34;;;;;;;8.43;6.78;;;;;;;;;;2097443;28;20067;-81
2022/12/09 04:10:53;;;;;;;10.80;7.13;;;;;;;;;;2094772;28;20028;-82
2022/12/09 04:12:12;;;;;;;10.82;7.00;;;;;;;;;;2097666;28;20037;-81
2022/12/09 04:13:31;;;;;;;8.82;6.68;;;;;;;;;;2093050;28;20037;-81
2022/12/09 04:14:50;;;;;;;8.88;6.43;;;;;;;;;;2094753;28;20029;-80
2022/12/09 04:16:09;;;;;;;9.55;6.82;;;;;;;;;;2096803;28;20033;-82
2022/12/09 04:17:27;;;;;;;8.75;6.60;;;;;;;;;;2095211;28;20580;-82
2022/12/09 04:18:47;;;;;;;6.80;5.85;;;;;;;;;;2096566;28;20021;-81
2022/12/09 04:20:06;;;;;;;9.35;6.30;;;;;;;;;;2093545;28;20052;-81
2022/12/09 04:21:25;;;;;;;8.98;6.05;;;;;;;;;;2095826;28;20052;-80
2022/12/09 04:22:43;;;;;;;10.57;6.05;;;;;;;;;;2097590;28;20032;-80
2022/12/09 04:24:02;;;;;;;6.70;5.30;;;;;;;;;;2096380;28;20103;-80
2022/12/09 04:25:21;;;;;;;8.95;6.60;;;;;;;;;;2096940;28;20103;-81
2022/12/09 04:26:40;;;;;;;7.00;6.00;;;;;;;;;;2096069;28;20036;-81
2022/12/09 04:28:00;;;;;;;7.00;6.15;;;;;;;;;;2097329;28;20036;-81
2022/12/09 04:29:19;;;;;;;6.20;5.60;;;;;;;;;;2094251;28;20111;-81
2022/12/09 04:30:38;;;;;;;9.23;6.13;;;;;;;;;;2092552;28;20151;-81
2022/12/09 04:31:56;;;;;;;7.97;6.45;;;;;;;;;;2097903;28;20024;-80
2022/12/09 04:33:15;;;;;;;7.53;5.90;;;;;;;;;;2096714;28;20036;-81
2022/12/09 04:34:35;;;;;;;7.80;6.55;;;;;;;;;;2096436;28;20044;-81
2022/12/09 04:35:54;;;;;;;9.13;6.45;;;;;;;;;;2096222;28;20389;-78
2022/12/09 04:37:14;;;;;;;10.68;5.82;;;;;;;;;;2096625;28;20017;-80
2022/12/09 04:38:33;;;;;;;9.75;6.20;;;;;;;;;;2095760;28;20028;-78
2022/12/09 04:39:52;;;;;;;9.85;6.57;;;;;;;;;;2097356;28;20029;-81
2022/12/09 04:41:11;;;;;;;10.05;5.88;;;;;;;;;;2094090;28;20029;-81
2022/12/09 04:42:30;;;;;;;8.45;6.03;;;;;;;;;;2094585;28;20029;-79
2022/12/09 04:43:49;;;;;;;11.88;6.57;;;;;;;;;;2096873;28;20032;-82
2022/12/09 04:45:08;;;;;;;10.93;6.43;;;;;;;;;;2096405;28;20033;-80
2022/12/09 04:46:27;;;;;;;7.13;6.00;;;;;;;;;;2096738;28;20373;-81
2022/12/09 04:47:46;;;;;;;11.10;6.03;;;;;;;;;;2094269;28;20028;-82
2022/12/09 04:49:05;;;;;;;9.25;6.68;;;;;;;;;;2095135;28;20058;-82
2022/12/09 04:50:24;;;;;;;8.20;5.85;;;;;;;;;;2097073;28;20030;-82
2022/12/09 04:51:43;;;;;;;7.93;6.25;;;;;;;;;;2097733;28;20024;-82
2022/12/09 04:53:02;;;;;;;10.15;6.25;;;;;;;;;;2096489;28;20435;-82
2022/12/09 04:54:20;;;;;;;10.32;6.05;;;;;;;;;;2096873;28;20032;-82
2022/12/09 04:55:39;;;;;;;10.23;6.60;;;;;;;;;;2097263;28;20036;-81
2022/12/09 04:56:58;;;;;;;7.18;6.30;;;;;;;;;;2097509;28;20481;-76
2022/12/09 04:58:17;;;;;;;7.93;6.53;;;;;;;;;;2096195;28;20025;-81
2022/12/09 04:59:37;;;;;;;8.35;6.50;;;;;;;;;;2091292;28;20041;-79
2022/12/09 05:00:56;;;;;;;7.15;5.30;;;;;;;;;;2094388;28;20111;-81
2022/12/09 05:02:15;;;;;;;7.95;6.35;;;;;;;;;;2096799;28;20524;-81
2022/12/09 05:03:34;;;;;;;10.63;6.40;;;;;;;;;;2093492;28;20033;-79
2022/12/09 05:04:53;;;;;;;9.40;6.28;;;;;;;;;;2095656;28;20435;-81
2022/12/09 05:06:12;;;;;;;11.02;6.15;;;;;;;;;;2096639;28;20032;-81
2022/12/09 05:07:31;;;;;;;23.90;11.70;;;;;;;;;;2095410;28;20427;-81
2022/12/09 05:08:51;;;;;;;43.15;17.50;;;;;;;;;;2093807;28;20505;-81
2022/12/09 05:10:09;;;;;;;17.98;9.07;;;;;;;;;;2095575;28;20040;-81
2022/12/09 05:11:28;;;;;;;14.68;8.75;;;;;;;;;;2097436;28;20025;-79
2022/12/09 05:12:47;;;;;;;31.10;14.75;;;;;;;;;;2094281;28;20416;-79
2022/12/09 05:14:06;;;;;;;87.57;36.65;;;;;;;;;;2096737;28;20028;-77
2022/12/09 05:15:25;;;;;;;37.40;16.50;;;;;;;;;;2096090;28;20036;-79
2022/12/09 05:16:44;;;;;;;13.68;8.50;;;;;;;;;;2096284;28;20142;-76
2022/12/09 05:18:03;;;;;;;10.00;6.88;;;;;;;;;;2097309;28;20029;-80
2022/12/09 05:19:22;;;;;;;9.05;6.57;;;;;;;;;;2096068;28;20040;-79
2022/12/09 05:20:41;;;;;;;10.35;6.47;;;;;;;;;;2094769;28;20480;-80
2022/12/09 05:22:00;;;;;;;8.52;5.55;;;;;;;;;;2095017;28;20041;-80
2022/12/09 05:23:19;;;;;;;6.68;5.97;;;;;;;;;;2098641;28;20428;-80
2022/12/09 05:24:39;;;;;;;11.38;6.28;;;;;;;;;;2097438;28;20104;-78
2022/12/09 05:26:01;;;;;;;8.48;5.70;;;;;;;;;;2095901;28;20024;-78
2022/12/09 05:27:20;;;;;;;7.07;5.72;;;;;;;;;;2098273;28;20024;-79
2022/12/09 05:28:39;;;;;;;8.63;5.90;;;;;;;;;;2099845;28;20021;-79
2022/12/09 05:29:58;;;;;;;9.25;5.78;;;;;;;;;;2097958;28;20440;-80
2022/12/09 05:31:18;;;;;;;8.10;6.20;;;;;;;;;;2099504;28;20831;-78
2022/12/09 05:32:37;;;;;;;7.40;6.45;;;;;;;;;;2096348;28;20033;-78
2022/12/09 05:33:57;;;;;;;9.20;6.10;;;;;;;;;;2096644;28;20060;-78
2022/12/09 05:35:15;;;;;;;8.57;5.72;;;;;;;;;;2096276;28;20032;-78
2022/12/09 05:36:34;;;;;;;8.30;5.75;;;;;;;;;;2098138;28;20036;-79
2022/12/09 05:37:53;;;;;;;10.60;6.03;;;;;;;;;;2096512;28;20068;-79
2022/12/09 05:39:12;;;;;;;8.98;5.97;;;;;;;;;;2096531;28;20028;-79
2022/12/09 05:40:31;;;;;;;6.80;5.55;;;;;;;;;;2099080;28;20060;-80
2022/12/09 05:41:50;;;;;;;8.90;5.68;;;;;;;;;;2099692;28;20040;-82
2022/12/09 05:43:09;;;;;;;7.90;6.15;;;;;;;;;;2099399;28;20617;-79
2022/12/09 05:44:28;;;;;;;7.03;5.63;;;;;;;;;;2097530;28;20107;-80
2022/12/09 05:45:47;;;;;;;7.93;5.50;;;;;;;;;;2096972;28;20459;-78
2022/12/09 05:47:06;;;;;;;23.60;6.72;;;;;;;;;;2099623;28;20448;-78
2022/12/09 05:48:25;;;;;;;9.90;5.68;;;;;;;;;;2099773;28;20026;-79
2022/12/09 05:49:44;;;;;;;9.02;5.63;;;;;;;;;;2095516;28;20028;-78
2022/12/09 05:51:10;;;;;;;7.35;5.68;;;;;;;;;;2097430;28;20032;-78
2022/12/09 05:52:29;;;;;;;7.72;5.32;;;;;;;;;;2098444;28;20037;-77
2022/12/09 05:53:48;;;;;;;7.15;5.45;;;;;;;;;;2098091;28;20430;-79
2022/12/09 05:55:08;;;;;;;6.63;5.05;;;;;;;;;;2097892;28;20473;-82
2022/12/09 05:56:27;;;;;;;5.78;5.28;;;;;;;;;;2098482;28;20021;-76
2022/12/09 05:57:45;;;;;;;8.52;4.90;;;;;;;;;;2099012;28;20017;-81
2022/12/09 05:59:04;;;;;;;8.02;5.32;;;;;;;;;;2098648;28;20032;-78
2022/12/09 06:00:24;;;;;;;7.65;5.15;;;;;;;;;;2095519;28;20036;-77
2022/12/09 06:01:42;;;;;;;9.35;5.18;;;;;;;;;;2099765;28;20119;-78
2022/12/09 06:03:01;;;;;;;4.82;4.43;;;;;;;;;;2099066;28;20063;-77
2022/12/09 06:04:20;;;;;;;6.55;4.90;;;;;;;;;;2098074;28;20066;-78
2022/12/09 06:05:39;;;;;;;5.28;4.43;;;;;;;;;;2094207;28;20037;-76
2022/12/09 06:06:58;;;;;;;9.02;5.25;;;;;;;;;;2098136;28;20036;-77
2022/12/09 06:08:17;;;;;;;7.15;5.18;;;;;;;;;;2097829;28;20032;-75
2022/12/09 06:09:36;;;;;;;5.78;5.25;;;;;;;;;;2098914;28;20075;-78
2022/12/09 06:10:55;;;;;;;9.60;4.93;;;;;;;;;;2098053;28;20060;-73
2022/12/09 06:12:14;;;;;;;7.00;4.57;;;;;;;;;;2099363;28;20511;-72
2022/12/09 06:13:33;;;;;;;5.45;4.55;;;;;;;;;;2098761;28;20032;-73
2022/12/09 06:14:52;;;;;;;5.55;5.00;;;;;;;;;;2099501;28;20025;-73
2022/12/09 06:16:11;;;;;;;5.05;4.55;;;;;;;;;;2094062;28;20493;-73
2022/12/09 06:17:30;;;;;;;5.30;4.40;;;;;;;;;;2095485;28;20115;-73
2022/12/09 06:18:49;;;;;;;6.93;5.00;;;;;;;;;;2098778;28;20033;-72
2022/12/09 06:20:08;;;;;;;5.10;4.25;;;;;;;;;;2099975;28;20036;-72
2022/12/09 06:21:27;;;;;;;4.28;3.85;;;;;;;;;;2098330;28;20041;-72
2022/12/09 06:22:46;;;;;;;6.85;4.80;;;;;;;;;;2098876;28;20450;-72
2022/12/09 06:24:05;;;;;;;5.30;3.85;;;;;;;;;;2095811;28;20455;-72
2022/12/09 06:25:24;;;;;;;5.20;4.35;;;;;;;;;;2095708;28;20029;-71
2022/12/09 06:26:43;;;;;;;7.05;4.45;;;;;;;;;;2098917;28;20107;-72
2022/12/09 06:28:03;;;;;;;6.20;4.45;;;;;;;;;;2097266;28;20041;-73
2022/12/09 06:29:22;;;;;;;5.10;4.28;;;;;;;;;;2098777;28;20020;-73
2022/12/09 06:31:50;;;;;;;5.82;4.50;;;;;;;;;;2094857;28;20052;-82
2022/12/09 06:33:09;;;;;;;8.60;4.30;;;;;;;;;;2094959;28;20032;-84
2022/12/09 06:34:29;;;;;;;5.07;4.60;;;;;;;;;;2085693;28;20440;-82
2022/12/09 06:35:52;;;;;;;5.55;4.50;;;;;;;;;;2094894;28;20028;-81
2022/12/09 06:37:13;;;;;;;9.02;5.25;;;;;;;;;;2094714;28;20032;-82
2022/12/09 06:38:32;;;;;;;6.45;4.50;;;;;;;;;;2095123;28;20020;-84
2022/12/09 06:39:51;;;;;;;7.45;4.90;;;;;;;;;;2094750;28;20033;-83
2022/12/09 06:41:11;;;;;;;8.07;5.10;;;;;;;;;;2098362;28;20025;-86
2022/12/09 06:42:30;;;;;;;5.70;5.05;;;;;;;;;;2098654;28;20028;-85
2022/12/09 06:43:49;;;;;;;5.60;5.05;;;;;;;;;;2096916;28;20032;-81
2022/12/09 06:45:08;;;;;;;11.45;5.30;;;;;;;;;;2092490;28;20028;-82
2022/12/09 06:46:27;;;;;;;5.30;4.80;;;;;;;;;;2094403;28;20028;-82
2022/12/09 06:47:46;;;;;;;7.80;4.90;;;;;;;;;;2094430;28;20029;-84
2022/12/09 06:49:05;;;;;;;5.85;5.30;;;;;;;;;;2097355;28;20024;-82
2022/12/09 06:50:24;;;;;;;5.78;5.20;;;;;;;;;;2089476;28;20041;-85
2022/12/09 06:51:43;;;;;;;5.60;5.05;;;;;;;;;;2095032;28;20037;-80
2022/12/09 06:53:04;;;;;;;8.70;5.25;;;;;;;;;;2094515;28;20033;-85
2022/12/09 06:54:23;;;;;;;5.38;4.88;;;;;;;;;;2093949;28;20107;-81
2022/12/09 06:55:42;;;;;;;6.10;5.32;;;;;;;;;;2093823;28;20029;-80
2022/12/09 06:57:01;;;;;;;11.10;5.38;;;;;;;;;;2096047;28;20036;-81
2022/12/09 06:58:20;;;;;;;9.43;5.70;;;;;;;;;;2098033;28;20452;-80
2022/12/09 06:59:39;;;;;;;5.78;4.78;;;;;;;;;;2096478;28;20935;-81
2022/12/09 07:01:05;;;;;;;6.28;5.22;;;;;;;;;;2095832;28;20033;-81
2022/12/09 07:02:24;;;;;;;5.65;4.78;;;;;;;;;;2096813;28;20025;-81
2022/12/09 07:03:44;;;;;;;7.20;4.85;;;;;;;;;;2096561;28;20020;-81
2022/12/09 07:05:03;;;;;;;7.20;5.13;;;;;;;;;;2095789;28;20422;-81
2022/12/09 07:06:30;;;;;;;6.35;5.30;;;;;;;;;;2097671;28;20036;-81
2022/12/09 07:07:50;;;;;;;6.43;4.82;;;;;;;;;;2100631;28;20052;-81
2022/12/09 07:09:17;;;;;;;6.15;4.90;;;;;;;;;;2101405;28;20025;-81
2022/12/09 07:10:36;;;;;;;6.93;4.82;;;;;;;;;;2098454;28;20020;-81
2022/12/09 07:11:55;;;;;;;6.15;5.00;;;;;;;;;;2097568;28;20028;-81
2022/12/09 07:13:13;;;;;;;9.15;5.30;;;;;;;;;;2101698;28;20040;-81
2022/12/09 07:14:32;;;;;;;6.22;5.50;;;;;;;;;;2102930;28;20028;-81
2022/12/09 07:15:52;;;;;;;9.23;5.47;;;;;;;;;;2096331;28;20482;-81
2022/12/09 07:17:14;;;;;;;6.93;5.32;;;;;;;;;;2097702;28;20044;-80
2022/12/09 07:18:33;;;;;;;8.60;5.80;;;;;;;;;;2101569;28;20427;-81
2022/12/09 07:19:52;;;;;;;11.27;5.25;;;;;;;;;;2099708;28;20427;-80
2022/12/09 07:21:12;;;;;;;8.35;5.03;;;;;;;;;;2098618;28;20028;-80
2022/12/09 07:22:32;;;;;;;13.48;8.68;;;;;;;;;;2098934;28;20032;-81
2022/12/09 07:23:51;;;;;;;10.00;6.80;;;;;;;;;;2097063;28;20017;-81
2022/12/09 07:25:10;;;;;;;10.07;5.97;;;;;;;;;;2101697;28;20020;-81
2022/12/09 07:26:29;;;;;;;9.07;6.00;;;;;;;;;;2098580;28;20029;-81
2022/12/09 07:27:48;;;;;;;13.00;6.63;;;;;;;;;;2099248;28;20029;-81
2022/12/09 07:29:07;;;;;;;19.92;10.15;;;;;;;;;;2100947;28;20036;-81
2022/12/09 07:30:26;;;;;;;6.68;5.57;;;;;;;;;;2102674;28;20028;-80
2022/12/09 07:31:46;;;;;;;7.70;5.88;;;;;;;;;;2095573;28;20061;-81
2022/12/09 07:33:05;;;;;;;11.43;6.50;;;;;;;;;;2098463;28;20044;-81
2022/12/09 07:34:24;;;;;;;7.45;5.70;;;;;;;;;;2100391;28;20028;-79
2022/12/09 07:35:43;;;;;;;7.45;5.43;;;;;;;;;;2101307;28;20111;-81
2022/12/09 07:37:03;;;;;;;17.02;9.60;;;;;;;;;;2101347;28;20512;-81
2022/12/09 07:38:23;;;;;;;8.70;6.32;;;;;;;;;;2102442;28;20028;-81
2022/12/09 07:39:42;;;;;;;8.57;5.72;;;;;;;;;;2099677;28;20032;-82
2022/12/09 07:41:04;;;;;;;9.40;5.72;;;;;;;;;;2100682;28;20025;-81
2022/12/09 07:42:23;;;;;;;11.30;6.30;;;;;;;;;;2100926;28;20089;-81
2022/12/09 07:43:45;;;;;;;6.30;5.25;;;;;;;;;;2099204;28;20021;-81
2022/12/09 07:45:04;;;;;;;6.00;5.40;;;;;;;;;;2090735;28;20466;-81
2022/12/09 07:46:26;;;;;;;6.45;5.50;;;;;;;;;;2095264;28;20028;-81
2022/12/09 07:47:45;;;;;;;6.35;5.75;;;;;;;;;;2101700;28;20028;-82
2022/12/09 07:49:04;;;;;;;7.22;5.75;;;;;;;;;;2098124;28;20025;-82
2022/12/09 07:50:23;;;;;;;5.93;5.40;;;;;;;;;;2105362;28;20031;-81
2022/12/09 07:51:42;;;;;;;11.38;6.00;;;;;;;;;;2098814;28;20107;-81
2022/12/09 07:53:01;;;;;;;11.05;5.75;;;;;;;;;;2098472;28;20048;-82
2022/12/09 07:54:21;;;;;;;10.63;5.88;;;;;;;;;;2103207;28;20040;-82
2022/12/09 07:55:39;;;;;;;9.00;5.78;;;;;;;;;;2103299;28;20052;-83
2022/12/09 07:56:58;;;;;;;9.35;5.60;;;;;;;;;;2092611;28;20024;-81